createdAt,value
2018-04-26T00:02:17.348Z,10.10
2018-04-26T00:04:45.634Z,10.10
2018-04-26T00:07:13.177Z,10.10
2018-04-26T00:09:41.463Z,10.10
2018-04-26T00:12:09.765Z,10.10
2018-04-26T00:14:37.284Z,10.00
2018-04-26T00:17:05.601Z,10.00
2018-04-26T00:19:33.115Z,10.00
2018-04-26T00:22:00.639Z,10.00
2018-04-26T00:24:28.153Z,10.00
2018-04-26T00:26:56.560Z,10.00
2018-04-26T00:29:24.085Z,10.00
2018-04-26T00:31:52.384Z,10.10
2018-04-26T00:34:19.956Z,10.10
2018-04-26T00:36:47.488Z,10.10
2018-04-26T00:39:15.771Z,10.00
2018-04-26T00:41:44.083Z,10.00
2018-04-26T00:44:11.634Z,10.00
2018-04-26T00:46:39.193Z,10.00
2018-04-26T00:49:06.763Z,9.90
2018-04-26T00:51:46.237Z,9.90
2018-04-26T00:54:13.746Z,9.90
2018-04-26T00:56:41.316Z,9.80
2018-04-26T00:59:08.848Z,9.80
2018-04-26T01:01:37.127Z,9.90
2018-04-26T01:04:05.424Z,9.90
2018-04-26T01:06:32.940Z,9.90
2018-04-26T01:09:00.473Z,9.90
2018-04-26T01:11:27.986Z,9.90
2018-04-26T01:13:55.518Z,9.90
2018-04-26T01:16:24.532Z,9.90
2018-04-26T01:18:52.827Z,9.80
2018-04-26T01:21:20.401Z,9.80
2018-04-26T01:23:47.932Z,9.80
2018-04-26T01:26:16.209Z,9.70
2018-04-26T01:28:44.499Z,9.70
2018-04-26T01:31:12.013Z,9.70
2018-04-26T01:33:39.544Z,9.60
2018-04-26T01:36:07.058Z,9.60
2018-04-26T01:38:35.372Z,9.50
2018-04-26T01:41:02.888Z,9.50
2018-04-26T01:43:31.190Z,9.50
2018-04-26T01:45:58.700Z,9.40
2018-04-26T01:48:26.216Z,9.40
2018-04-26T01:50:53.748Z,9.30
2018-04-26T01:53:22.063Z,9.20
2018-04-26T01:55:49.588Z,9.20
2018-04-26T01:58:17.867Z,9.10
2018-04-26T02:00:46.169Z,9.10
2018-04-26T02:03:13.676Z,9.00
2018-04-26T02:05:41.214Z,9.00
2018-04-26T02:08:08.731Z,8.90
2018-04-26T02:10:36.265Z,8.70
2018-04-26T02:13:03.778Z,8.60
2018-04-26T02:15:31.312Z,8.50
2018-04-26T02:17:59.584Z,8.40
2018-04-26T02:20:27.903Z,8.30
2018-04-26T02:22:55.415Z,8.20
2018-04-26T02:25:23.695Z,8.10
2018-04-26T02:27:51.992Z,8.00
2018-04-26T02:30:19.561Z,8.00
2018-04-26T02:32:47.103Z,7.90
2018-04-26T02:35:14.613Z,7.80
2018-04-26T02:37:42.241Z,7.70
2018-04-26T02:40:09.759Z,7.70
2018-04-26T02:42:38.069Z,7.60
2018-04-26T02:45:05.576Z,7.60
2018-04-26T02:47:33.203Z,7.60
2018-04-26T02:50:00.759Z,7.50
2018-04-26T02:52:28.305Z,7.50
2018-04-26T02:54:55.884Z,7.40
2018-04-26T02:57:23.427Z,7.40
2018-04-26T02:59:50.948Z,7.40
2018-04-26T03:02:19.377Z,7.30
2018-04-26T03:04:46.893Z,7.20
2018-04-26T03:07:14.418Z,7.20
2018-04-26T03:09:41.945Z,7.10
2018-04-26T03:12:09.521Z,7.10
2018-04-26T03:14:37.085Z,7.00
2018-04-26T03:17:04.614Z,6.90
2018-04-26T03:19:32.157Z,6.90
2018-04-26T03:22:00.481Z,6.80
2018-04-26T03:24:28.013Z,6.80
2018-04-26T03:26:56.312Z,6.80
2018-04-26T03:29:23.855Z,6.80
2018-04-26T03:31:51.364Z,6.70
2018-04-26T03:34:18.901Z,6.70
2018-04-26T03:36:46.411Z,6.70
2018-04-26T03:39:13.941Z,6.70
2018-04-26T03:41:41.464Z,6.70
2018-04-26T03:44:08.997Z,6.70
2018-04-26T03:46:37.289Z,6.60
2018-04-26T03:49:05.580Z,6.60
2018-04-26T03:51:33.143Z,6.50
2018-04-26T03:54:00.666Z,6.50
2018-04-26T03:56:28.952Z,6.50
2018-04-26T03:58:57.256Z,6.40
2018-04-26T04:01:36.627Z,6.40
2018-04-26T04:04:16.704Z,6.40
2018-04-26T04:06:44.219Z,6.40
2018-04-26T04:09:11.754Z,6.40
2018-04-26T04:11:39.275Z,6.40
2018-04-26T04:14:06.809Z,6.30
2018-04-26T04:16:34.325Z,6.20
2018-04-26T04:19:02.629Z,6.10
2018-04-26T04:24:03.067Z,6.10
2018-04-26T04:26:30.584Z,6.10
2018-04-26T04:28:58.199Z,6.20
2018-04-26T04:31:25.717Z,6.30
2018-04-26T04:33:54.025Z,6.60
2018-04-26T04:36:21.544Z,6.50
2018-04-26T04:38:49.833Z,7.50
2018-04-26T04:41:18.148Z,8.10
2018-04-26T04:43:45.659Z,8.10
2018-04-26T04:46:13.192Z,8.20
2018-04-26T04:48:40.704Z,8.20
2018-04-26T04:51:08.241Z,8.00
2018-04-26T04:53:36.531Z,7.70
2018-04-26T04:56:04.831Z,7.60
2018-04-26T04:58:32.352Z,7.60
2018-04-26T05:00:59.886Z,7.60
2018-04-26T05:03:27.395Z,7.70
2018-04-26T05:05:55.692Z,7.90
2018-04-26T05:08:23.262Z,7.80
2018-04-26T05:10:50.799Z,8.00
2018-04-26T05:13:18.315Z,8.00
2018-04-26T05:15:45.845Z,7.80
2018-04-26T05:18:13.358Z,8.00
2018-04-26T05:20:41.742Z,10.80
2018-04-26T05:23:09.207Z,10.80
2018-04-26T05:25:36.885Z,13.00
2018-04-26T05:28:04.372Z,14.60
2018-04-26T05:30:31.887Z,15.50
2018-04-26T05:33:00.192Z,16.80
2018-04-26T05:35:27.706Z,16.80
2018-04-26T05:37:55.244Z,16.90
2018-04-26T05:40:22.766Z,17.20
2018-04-26T05:42:50.301Z,17.30
2018-04-26T05:45:18.584Z,17.00
2018-04-26T05:47:46.904Z,17.90
2018-04-26T05:50:14.425Z,17.90
2018-04-26T05:52:42.729Z,18.00
2018-04-26T05:55:10.248Z,18.00
2018-04-26T05:57:38.540Z,18.30
2018-04-26T06:00:06.817Z,18.30
2018-04-26T06:02:35.113Z,18.90
2018-04-26T06:05:02.625Z,18.90
2018-04-26T06:07:30.244Z,19.30
2018-04-26T06:09:57.761Z,19.30
2018-04-26T06:12:26.048Z,19.20
2018-04-26T06:14:54.428Z,19.20
2018-04-26T06:17:22.708Z,19.30
2018-04-26T06:19:51.003Z,19.30
2018-04-26T06:22:19.292Z,19.30
2018-04-26T06:24:46.962Z,19.00
2018-04-26T06:27:14.504Z,18.90
2018-04-26T06:29:42.105Z,18.80
2018-04-26T06:32:09.628Z,17.10
2018-04-26T06:34:37.169Z,15.10
2018-04-26T06:37:05.450Z,11.90
2018-04-26T06:39:32.988Z,11.90
2018-04-26T06:42:01.418Z,10.60
2018-04-26T06:44:28.957Z,10.50
2018-04-26T06:46:56.472Z,10.30
2018-04-26T06:49:24.008Z,10.10
2018-04-26T06:51:51.526Z,10.10
2018-04-26T06:54:19.825Z,10.10
2018-04-26T06:56:47.390Z,10.10
2018-04-26T06:59:14.979Z,10.20
2018-04-26T07:01:43.304Z,10.90
2018-04-26T07:04:11.609Z,11.10
2018-04-26T07:06:39.132Z,11.10
2018-04-26T07:09:07.441Z,11.60
2018-04-26T07:11:35.003Z,11.60
2018-04-26T07:14:03.255Z,11.80
2018-04-26T07:16:31.547Z,12.00
2018-04-26T07:18:59.059Z,12.00
2018-04-26T07:21:28.104Z,11.90
2018-04-26T07:23:58.939Z,11.90
2018-04-26T07:26:26.487Z,12.00
2018-04-26T07:28:55.883Z,12.60
2018-04-26T07:31:26.564Z,13.50
2018-04-26T07:33:54.084Z,13.50
2018-04-26T07:36:21.673Z,14.40
2018-04-26T07:38:49.192Z,15.40
2018-04-26T07:41:17.498Z,15.60
2018-04-26T07:43:45.013Z,15.50
2018-04-26T07:46:12.543Z,15.20
2018-04-26T07:48:40.055Z,15.20
2018-04-26T07:51:08.357Z,15.30
2018-04-26T07:53:35.869Z,15.30
2018-04-26T07:56:03.463Z,15.10
2018-04-26T07:58:30.985Z,15.70
2018-04-26T08:01:00.033Z,16.60
2018-04-26T08:03:30.872Z,16.60
2018-04-26T08:05:59.302Z,16.00
2018-04-26T08:08:26.820Z,15.60
2018-04-26T08:10:54.365Z,14.50
2018-04-26T08:13:21.881Z,13.80
2018-04-26T08:15:49.396Z,13.30
2018-04-26T08:18:16.932Z,13.10
2018-04-26T08:20:45.209Z,13.50
2018-04-26T08:23:13.636Z,13.50
2018-04-26T08:25:41.146Z,13.10
2018-04-26T08:28:09.445Z,13.20
2018-04-26T08:30:36.975Z,13.20
2018-04-26T08:33:05.331Z,12.70
2018-04-26T08:35:32.813Z,12.70
2018-04-26T08:38:02.766Z,13.00
2018-04-26T08:40:32.450Z,13.60
2018-04-26T08:43:02.310Z,14.60
2018-04-26T08:45:29.975Z,14.60
2018-04-26T08:47:57.573Z,15.50
2018-04-26T08:50:26.914Z,16.90
2018-04-26T08:52:55.099Z,16.90
2018-04-26T08:58:07.739Z,16.00
2018-04-26T09:00:35.378Z,14.80
2018-04-26T09:03:03.047Z,14.10
2018-04-26T09:05:31.842Z,13.50
2018-04-26T09:08:00.015Z,13.50
2018-04-26T09:10:27.996Z,13.30
2018-04-26T09:12:56.973Z,13.20
2018-04-26T09:15:24.975Z,13.10
2018-04-26T09:17:52.870Z,13.10
2018-04-26T09:22:56.229Z,12.90
2018-04-26T09:25:25.020Z,12.90
2018-04-26T09:27:54.083Z,12.70
2018-04-26T09:30:22.384Z,12.50
2018-04-26T09:32:49.904Z,12.50
2018-04-26T09:35:18.208Z,12.30
2018-04-26T09:37:45.995Z,12.20
2018-04-26T09:40:13.552Z,12.50
2018-04-26T09:42:41.064Z,13.10
2018-04-26T09:45:08.649Z,13.80
2018-04-26T09:47:36.927Z,14.50
2018-04-26T09:50:05.232Z,14.30
2018-04-26T09:52:32.748Z,14.30
2018-04-26T09:55:01.053Z,13.60
2018-04-26T09:57:28.639Z,13.60
2018-04-26T09:59:56.173Z,13.30
2018-04-26T10:02:24.620Z,13.10
2018-04-26T10:04:55.119Z,13.00
2018-04-26T10:07:22.632Z,13.30
2018-04-26T10:09:50.944Z,15.60
2018-04-26T10:12:18.461Z,15.60
2018-04-26T10:14:45.976Z,16.50
2018-04-26T10:17:13.508Z,17.10
2018-04-26T10:19:41.023Z,17.00
2018-04-26T10:22:08.560Z,16.30
2018-04-26T10:24:36.075Z,15.40
2018-04-26T10:27:04.372Z,15.70
2018-04-26T10:29:31.890Z,15.60
2018-04-26T10:31:59.424Z,15.90
2018-04-26T10:34:26.936Z,16.10
2018-04-26T10:36:55.243Z,17.30
2018-04-26T10:39:22.756Z,17.30
2018-04-26T10:41:50.288Z,17.80
2018-04-26T10:44:17.843Z,18.20
2018-04-26T10:46:45.365Z,17.10
2018-04-26T10:49:12.888Z,15.80
2018-04-26T10:51:40.512Z,14.90
2018-04-26T10:54:08.028Z,14.40
2018-04-26T10:56:36.328Z,14.30
2018-04-26T10:59:03.846Z,14.30
2018-04-26T11:01:31.384Z,14.20
2018-04-26T11:03:58.904Z,14.10
2018-04-26T11:06:27.206Z,13.90
2018-04-26T11:08:54.725Z,13.90
2018-04-26T11:11:22.328Z,14.00
2018-04-26T11:13:49.898Z,14.70
2018-04-26T11:16:17.440Z,15.40
2018-04-26T11:18:44.953Z,15.70
2018-04-26T11:21:12.498Z,15.60
2018-04-26T11:23:40.031Z,15.20
2018-04-26T11:26:07.541Z,14.40
2018-04-26T11:28:36.584Z,13.10
2018-04-26T11:31:04.126Z,13.10
2018-04-26T11:33:31.724Z,12.80
2018-04-26T11:35:59.241Z,12.80
2018-04-26T11:38:26.786Z,13.00
2018-04-26T11:40:54.307Z,13.30
2018-04-26T11:43:21.843Z,13.90
2018-04-26T11:45:52.660Z,15.00
2018-04-26T11:48:20.964Z,15.50
2018-04-26T11:50:48.487Z,15.50
2018-04-26T11:53:16.025Z,15.80
2018-04-26T11:55:43.551Z,16.50
2018-04-26T11:58:11.116Z,17.00
2018-04-26T12:00:38.631Z,16.70
2018-04-26T12:03:06.165Z,16.30
2018-04-26T12:05:33.680Z,15.50
2018-04-26T12:08:01.212Z,15.10
2018-04-26T12:10:28.726Z,14.70
2018-04-26T12:12:56.260Z,15.00
2018-04-26T12:15:24.540Z,16.20
2018-04-26T12:17:52.842Z,15.80
2018-04-26T12:20:20.366Z,15.80
2018-04-26T12:22:48.663Z,15.10
2018-04-26T12:25:16.186Z,15.10
2018-04-26T12:27:43.706Z,15.40
2018-04-26T12:30:11.243Z,15.80
2018-04-26T12:32:39.519Z,15.90
2018-04-26T12:35:07.080Z,15.90
2018-04-26T12:37:35.344Z,16.30
2018-04-26T12:40:03.643Z,16.30
2018-04-26T12:42:31.180Z,16.30
2018-04-26T12:44:58.708Z,16.40
2018-04-26T12:47:26.248Z,16.50
2018-04-26T12:49:53.785Z,17.10
2018-04-26T12:52:21.307Z,17.10
2018-04-26T12:54:48.849Z,17.00
2018-04-26T12:57:16.369Z,17.10
2018-04-26T12:59:43.896Z,17.10
2018-04-26T13:02:11.415Z,16.40
2018-04-26T13:04:39.524Z,16.30
2018-04-26T13:07:07.031Z,16.60
2018-04-26T13:09:34.560Z,17.00
2018-04-26T13:12:02.077Z,17.10
2018-04-26T13:14:29.615Z,17.30
2018-04-26T13:16:57.131Z,17.10
2018-04-26T13:19:24.663Z,16.60
2018-04-26T13:21:52.176Z,16.30
2018-04-26T13:24:20.480Z,16.70
2018-04-26T13:26:47.992Z,16.60
2018-04-26T13:29:16.301Z,16.30
2018-04-26T13:31:43.828Z,16.30
2018-04-26T13:34:12.161Z,16.30
2018-04-26T13:36:41.403Z,15.70
2018-04-26T13:39:08.920Z,15.70
2018-04-26T13:41:39.464Z,15.40
2018-04-26T13:44:09.567Z,15.20
2018-04-26T13:46:37.956Z,14.50
2018-04-26T13:49:05.473Z,14.40
2018-04-26T13:51:33.772Z,14.60
2018-04-26T13:54:01.298Z,14.60
2018-04-26T13:56:28.836Z,14.70
2018-04-26T13:58:56.374Z,14.70
2018-04-26T14:01:23.931Z,14.80
2018-04-26T14:03:51.443Z,15.00
2018-04-26T14:06:18.981Z,15.40
2018-04-26T14:08:46.492Z,15.90
2018-04-26T14:11:14.021Z,16.40
2018-04-26T14:13:41.540Z,16.70
2018-04-26T14:16:09.853Z,16.40
2018-04-26T14:18:37.377Z,16.00
2018-04-26T14:21:04.907Z,15.50
2018-04-26T14:23:33.133Z,15.20
2018-04-26T14:26:00.776Z,14.80
2018-04-26T14:28:29.111Z,14.70
2018-04-26T14:30:57.407Z,14.60
2018-04-26T14:33:24.925Z,14.60
2018-04-26T14:35:52.478Z,15.00
2018-04-26T14:38:19.993Z,15.60
2018-04-26T14:40:47.564Z,16.00
2018-04-26T14:43:15.110Z,16.10
2018-04-26T14:45:42.631Z,16.10
2018-04-26T14:48:10.166Z,15.70
2018-04-26T14:50:37.682Z,15.80
2018-04-26T14:53:05.988Z,15.80
2018-04-26T14:55:33.503Z,15.80
2018-04-26T14:58:01.821Z,15.70
2018-04-26T15:00:29.332Z,15.70
2018-04-26T15:02:56.903Z,15.50
2018-04-26T15:05:25.250Z,15.30
2018-04-26T15:07:52.737Z,15.20
2018-04-26T15:10:20.253Z,15.30
2018-04-26T15:12:47.787Z,15.20
2018-04-26T15:15:15.307Z,15.00
2018-04-26T15:17:42.832Z,14.70
2018-04-26T15:20:10.383Z,14.30
2018-04-26T15:22:37.916Z,14.10
2018-04-26T15:25:06.206Z,14.00
2018-04-26T15:27:33.752Z,14.00
2018-04-26T15:30:02.067Z,14.50
2018-04-26T15:32:29.582Z,14.50
2018-04-26T15:34:57.908Z,15.10
2018-04-26T15:37:25.424Z,15.10
2018-04-26T15:39:53.723Z,15.30
2018-04-26T15:42:21.236Z,15.20
2018-04-26T15:44:48.764Z,15.30
2018-04-26T15:47:16.283Z,15.20
2018-04-26T15:49:44.593Z,14.90
2018-04-26T15:52:12.100Z,14.90
2018-04-26T15:54:51.565Z,14.60
2018-04-26T15:57:32.269Z,14.40
2018-04-26T16:00:11.871Z,14.40
2018-04-26T16:02:58.804Z,14.10
2018-04-26T16:05:38.288Z,14.10
2018-04-26T16:08:23.567Z,14.10
2018-04-26T16:11:08.906Z,14.30
2018-04-26T16:13:54.171Z,14.50
2018-04-26T16:16:39.353Z,14.50
2018-04-26T16:19:28.275Z,14.50
2018-04-26T16:22:13.560Z,14.50
2018-04-26T16:24:54.080Z,14.40
2018-04-26T16:27:39.478Z,14.20
2018-04-26T16:33:27.294Z,14.20
2018-04-26T16:36:21.503Z,14.30
2018-04-26T16:39:08.536Z,14.30
2018-04-26T16:41:36.068Z,14.20
2018-04-26T16:44:03.581Z,14.10
2018-04-26T16:46:31.120Z,14.10
2018-04-26T16:48:58.725Z,14.10
2018-04-26T16:51:26.197Z,14.10
2018-04-26T16:53:53.803Z,14.00
2018-04-26T16:56:24.049Z,13.90
2018-04-26T16:58:52.590Z,13.80
2018-04-26T17:01:20.172Z,13.80
2018-04-26T17:03:47.689Z,13.80
2018-04-26T17:06:15.988Z,13.70
2018-04-26T17:08:43.515Z,13.70
2018-04-26T17:11:11.820Z,13.60
2018-04-26T17:13:39.339Z,13.60
2018-04-26T17:16:06.877Z,13.50
2018-04-26T17:18:34.396Z,13.40
2018-04-26T17:21:01.937Z,13.20
2018-04-26T17:23:30.256Z,13.10
2018-04-26T17:25:57.765Z,13.10
2018-04-26T17:28:25.309Z,13.00
2018-04-26T17:30:52.821Z,12.90
2018-04-26T17:33:20.368Z,12.80
2018-04-26T17:35:47.887Z,12.80
2018-04-26T17:38:15.432Z,12.80
2018-04-26T17:40:42.952Z,12.80
2018-04-26T17:43:11.256Z,12.70
2018-04-26T17:45:38.844Z,12.70
2018-04-26T17:48:06.430Z,12.70
2018-04-26T17:50:33.888Z,12.60
2018-04-26T17:53:01.423Z,12.50
2018-04-26T17:55:28.943Z,12.40
2018-04-26T17:57:56.485Z,12.40
2018-04-26T18:00:24.760Z,12.20
2018-04-26T18:02:52.287Z,12.10
2018-04-26T18:05:19.808Z,12.10
2018-04-26T18:07:47.344Z,12.00
2018-04-26T18:10:15.625Z,11.80
2018-04-26T18:12:43.935Z,11.60
2018-04-26T18:15:11.449Z,11.60
2018-04-26T18:17:38.975Z,11.50
2018-04-26T18:20:08.584Z,11.40
2018-04-26T18:22:34.056Z,11.40
2018-04-26T18:25:01.616Z,11.20
2018-04-26T18:27:29.897Z,10.80
2018-04-26T18:29:58.198Z,10.70
2018-04-26T18:32:25.707Z,10.70
2018-04-26T18:34:53.252Z,10.60
2018-04-26T18:37:20.773Z,10.40
2018-04-26T18:39:48.317Z,10.30
2018-04-26T18:42:16.600Z,10.10
2018-04-26T18:44:44.901Z,10.00
2018-04-26T18:47:12.408Z,9.90
2018-04-26T18:49:39.940Z,9.90
2018-04-26T18:52:07.448Z,9.70
2018-04-26T18:54:35.749Z,9.50
2018-04-26T18:57:03.308Z,9.50
2018-04-26T18:59:30.811Z,9.50
2018-04-26T19:01:58.324Z,9.40
2018-04-26T19:04:26.622Z,9.30
2018-04-26T19:06:54.137Z,9.30
2018-04-26T19:09:21.683Z,9.20
2018-04-26T19:11:49.208Z,9.10
2018-04-26T19:14:16.760Z,9.00
2018-04-26T19:16:44.275Z,9.00
2018-04-26T19:19:11.792Z,9.00
2018-04-26T19:21:39.320Z,9.00
2018-04-26T19:24:07.596Z,8.90
2018-04-26T19:26:35.125Z,8.90
2018-04-26T19:29:02.648Z,8.90
2018-04-26T19:31:30.179Z,8.80
2018-04-26T19:33:57.755Z,8.60
2018-04-26T19:36:25.240Z,8.50
2018-04-26T19:38:52.759Z,8.40
2018-04-26T19:41:20.300Z,8.40
2018-04-26T19:43:47.808Z,8.30
2018-04-26T19:46:15.336Z,8.30
2018-04-26T19:48:42.849Z,8.30
2018-04-26T19:51:10.384Z,8.30
2018-04-26T19:53:38.679Z,8.40
2018-04-26T19:56:06.216Z,8.40
2018-04-26T19:58:34.495Z,8.30
2018-04-26T20:01:02.801Z,8.20
2018-04-26T20:03:30.368Z,8.20
2018-04-26T20:05:57.922Z,8.20
2018-04-26T20:08:25.440Z,8.10
2018-04-26T20:10:52.956Z,8.10
2018-04-26T20:13:20.504Z,8.10
2018-04-26T20:15:48.022Z,8.10
2018-04-26T20:18:16.338Z,8.10
2018-04-26T20:20:43.855Z,8.10
2018-04-26T20:23:12.259Z,8.10
2018-04-26T20:25:41.228Z,8.20
2018-04-26T20:28:09.853Z,8.10
2018-04-26T20:30:38.463Z,8.20
2018-04-26T20:33:05.998Z,8.10
2018-04-26T20:35:33.513Z,8.10
2018-04-26T20:38:01.052Z,8.10
2018-04-26T20:40:28.560Z,8.10
2018-04-26T20:42:56.859Z,7.90
2018-04-26T20:45:24.375Z,7.90
2018-04-26T20:47:51.912Z,7.70
2018-04-26T20:50:19.430Z,7.60
2018-04-26T20:52:46.969Z,7.50
2018-04-26T20:55:15.295Z,7.40
2018-04-26T20:57:42.832Z,7.50
2018-04-26T21:00:10.343Z,7.40
2018-04-26T21:02:37.872Z,7.40
2018-04-26T21:05:05.392Z,7.40
2018-04-26T21:07:33.688Z,7.30
2018-04-26T21:10:01.206Z,7.30
2018-04-26T21:12:28.747Z,7.20
2018-04-26T21:14:56.263Z,7.10
2018-04-26T21:17:24.560Z,6.90
2018-04-26T21:19:52.132Z,6.90
2018-04-26T21:22:19.656Z,6.90
2018-04-26T21:24:47.961Z,6.80
2018-04-26T21:27:15.480Z,6.80
2018-04-26T21:29:43.007Z,6.90
2018-04-26T21:32:10.518Z,6.80
2018-04-26T21:34:38.816Z,6.80
2018-04-26T21:37:06.341Z,6.80
2018-04-26T21:39:33.878Z,6.80
2018-04-26T21:42:01.396Z,6.90
2018-04-26T21:44:28.933Z,6.90
2018-04-26T21:46:57.219Z,6.90
2018-04-26T21:49:25.027Z,6.90
2018-04-26T21:51:58.384Z,6.90
2018-04-26T21:54:31.563Z,6.90
2018-04-26T21:57:04.760Z,7.00
2018-04-26T21:59:38.771Z,7.10
2018-04-26T22:02:12.936Z,7.10
2018-04-26T22:04:44.131Z,7.10
2018-04-26T22:07:11.649Z,7.20
2018-04-26T22:09:39.186Z,7.20
2018-04-26T22:12:06.695Z,7.20
2018-04-26T22:14:34.234Z,7.10
2018-04-26T22:17:01.753Z,7.20
2018-04-26T22:19:29.287Z,7.10
2018-04-26T22:21:56.796Z,7.10
2018-04-26T22:24:24.329Z,7.00
2018-04-26T22:26:52.611Z,6.80
2018-04-26T22:29:20.918Z,6.70
2018-04-26T22:31:48.443Z,6.70
2018-04-26T22:34:16.747Z,6.60
2018-04-26T22:36:44.261Z,6.60
2018-04-26T22:39:11.790Z,6.60
2018-04-26T22:41:39.301Z,6.60
2018-04-26T22:44:07.605Z,6.60
2018-04-26T22:46:35.120Z,6.50
2018-04-26T22:49:02.648Z,6.50
2018-04-26T22:51:30.163Z,6.50
2018-04-26T22:53:58.440Z,6.50
2018-04-26T22:56:26.746Z,6.50
2018-04-26T22:58:54.262Z,6.50
2018-04-26T23:01:21.882Z,6.40
2018-04-26T23:03:49.396Z,6.30
2018-04-26T23:06:17.698Z,5.90
2018-04-26T23:08:45.203Z,5.90
2018-04-26T23:11:12.751Z,5.80
2018-04-26T23:13:40.275Z,5.70
2018-04-26T23:16:07.823Z,5.60
2018-04-26T23:18:36.114Z,5.60
2018-04-26T23:21:03.643Z,5.60
2018-04-26T23:23:31.152Z,5.60
2018-04-26T23:25:58.681Z,5.60
2018-04-26T23:28:26.969Z,5.60
2018-04-26T23:30:54.501Z,5.50
2018-04-26T23:33:22.016Z,5.50
2018-04-26T23:35:49.583Z,5.50
2018-04-26T23:38:17.135Z,5.50
2018-04-26T23:40:44.704Z,5.40
2018-04-26T23:43:12.223Z,5.30
2018-04-26T23:45:40.533Z,5.30
2018-04-26T23:48:08.049Z,5.30
2018-04-26T23:50:35.594Z,5.30
2018-04-26T23:53:03.115Z,5.30
2018-04-26T23:55:30.684Z,5.30
2018-04-26T23:57:58.212Z,5.20
